Data for 06/05/2016

Time Sea-Level Adjusted Pressure Absolute Pressure Temperature Relative Humidity Dew Point   
(mb) (inHg) (mb) (inHg) (C) (F) (%) (C) (F)
00:05 1023 30.21 852 25.16 15.5 59.9 44 3.5 38.2
00:10 1023 30.21 852 25.16 15.4 59.7 45 3.7 38.7
00:15 1023 30.21 852 25.16 15.4 59.8 46 4.1 39.3
00:20 1023 30.21 852 25.16 15.4 59.6 45 3.5 38.3
00:25 1023 30.21 852 25.16 15.4 59.8 44 3.4 38.2
00:30 1023 30.21 852 25.16 15.6 60 44 3.4 38.1
00:35 1023 30.21 852 25.16 15.6 60 44 3.4 38.1
00:40 1023 30.21 852 25.16 15.5 59.9 43 3.2 37.7
00:45 1023 30.21 852 25.16 15.8 60.4 42 3 37.4
00:50 1023 30.21 852 25.16 16.2 61.1 41 2.9 37.1
00:55 1023 30.21 852 25.16 16.2 61.2 41 3.1 37.6
01:00 1023 30.21 852 25.16 15.9 60.6 42 3 37.4
01:05 1023 30.21 852 25.16 15.8 60.5 42 3.2 37.7
01:10 1023 30.21 852 25.16 15.4 59.8 43 3.1 37.6
01:15 1023 30.21 852 25.16 15.6 60 43 3 37.5
01:20 1023 30.21 852 25.16 15.5 59.9 42 2.8 37.1
01:25 1023 30.21 852 25.16 15.7 60.3 44 3.5 38.3
01:30 1023 30.21 852 25.16 15.3 59.6 44 3.2 37.8
01:35 1023 30.21 852 25.16 15 59 45 3.1 37.6
01:40 1023 30.21 852 25.16 15.1 59.1 43 2.7 36.8
01:45 1023 30.21 852 25.16 15.3 59.6 41 2.3 36.1
01:50 1023 30.21 852 25.16 15.7 60.2 42 2.9 37.2
01:55 1022 30.18 852 25.16 15.8 60.4 41 2.8 37.1
02:00 1022 30.18 852 25.16 15.6 60.1 44 3.5 38.2
02:05 1022 30.18 852 25.16 14.9 58.8 46 3.6 38.4
02:10 1022 30.18 852 25.16 14.5 58 48 3.6 38.5
02:15 1022 30.18 852 25.16 14.1 57.4 49 3.6 38.5
02:20 1022 30.18 852 25.16 14 57.1 49 3.5 38.3
02:25 1022 30.18 852 25.16 13.7 56.6 51 3.7 38.7
02:30 1022 30.18 852 25.16 13.5 56.3 52 3.9 39
02:35 1022 30.18 851 25.13 13.5 56.2 51 3.5 38.4
02:40 1022 30.18 851 25.13 13.4 56.2 51 3.6 38.4
02:45 1022 30.18 851 25.13 13.3 56 51 3.6 38.4
02:50 1022 30.18 851 25.13 13.4 56 50 3.3 37.9
02:55 1022 30.18 851 25.13 13.8 56.8 48 3 37.4
03:00 1022 30.18 851 25.13 14.5 58.1 45 2.7 36.9
03:05 1022 30.18 851 25.13 14.9 58.7 46 3.3 38
03:10 1022 30.18 851 25.13 14.5 58 48 3.6 38.6
03:15 1022 30.18 851 25.13 13.9 57.1 50 3.7 38.7
03:20 1022 30.18 851 25.13 13.6 56.5 51 3.7 38.7
03:25 1022 30.18 851 25.13 13.4 56.1 51 3.6 38.4
03:30 1022 30.18 851 25.13 13.5 56.3 51 3.7 38.6
03:35 1022 30.18 851 25.13 13.5 56.3 50 3.5 38.3
03:40 1022 30.18 851 25.13 13.7 56.6 49 3.3 37.9
03:45 1022 30.18 851 25.13 13.9 57.1 48 3.2 37.8
03:50 1022 30.18 851 25.13 14.2 57.5 48 3.4 38.2
03:55 1022 30.18 851 25.13 13.9 56.9 49 3.4 38.1
04:00 1022 30.18 851 25.13 13.8 56.8 50 3.5 38.3
04:05 1022 30.18 851 25.13 13.6 56.6 50 3.6 38.4
04:10 1022 30.18 851 25.13 13.6 56.5 49 3.2 37.8
04:15 1022 30.18 851 25.13 13.8 56.8 49 3.3 37.9
04:20 1022 30.18 851 25.13 13.9 56.9 48 3.2 37.8
04:25 1022 30.18 851 25.13 13.9 56.9 50 3.6 38.5
04:30 1022 30.18 851 25.13 13.6 56.4 50 3.5 38.3
04:35 1022 30.18 851 25.13 13.5 56.2 51 3.6 38.5
04:40 1022 30.18 852 25.16 13.2 55.8 52 3.6 38.5
04:45 1022 30.18 852 25.16 13.1 55.5 52 3.6 38.5
04:50 1022 30.18 852 25.16 13.1 55.6 51 3.4 38.1
04:55 1022 30.18 852 25.16 13.4 56 53 4.1 39.3
05:00 1022 30.18 852 25.16 13.3 56 50 3 37.5
05:05 1022 30.18 852 25.16 13.6 56.4 52 4 39.3
05:10 1022 30.18 852 25.16 12.9 55.3 51 3 37.4
05:15 1022 30.18 852 25.16 13.3 55.9 52 3.8 38.8
05:20 1022 30.18 852 25.16 12.9 55.1 52 3.4 38.1
05:25 1022 30.18 852 25.16 13.4 56 51 3.4 38.1
05:30 1023 30.21 852 25.16 13.5 56.3 51 3.6 38.5
05:35 1023 30.21 852 25.16 13.6 56.5 51 3.8 38.8
05:40 1023 30.21 852 25.16 13.8 56.9 50 3.8 38.8
05:45 1023 30.21 852 25.16 14.1 57.3 50 3.8 38.8
05:50 1023 30.21 852 25.16 14.4 57.9 49 3.9 39.1
05:55 1023 30.21 852 25.16 14.7 58.4 49 4.2 39.5
06:00 1023 30.21 852 25.16 15.1 59.1 47 4 39.3
06:05 1023 30.21 852 25.16 15.2 59.4 47 4.2 39.5
06:10 1023 30.21 852 25.16 15.2 59.4 48 4.3 39.8
06:15 1023 30.21 852 25.16 15.2 59.3 49 4.6 40.3
06:20 1023 30.21 852 25.16 14.9 58.8 50 4.6 40.2
06:25 1023 30.21 852 25.16 15.2 59.4 48 4.4 39.9
06:30 1023 30.21 852 25.16 15.8 60.4 46 4.3 39.8
06:35 1023 30.21 852 25.16 15.8 60.5 48 5.1 41.1
06:40 1023 30.21 852 25.16 16 60.9 48 5.2 41.4
06:45 1023 30.21 852 25.16 16 60.7 48 5 41
06:50 1023 30.21 852 25.16 16.4 61.4 48 5.3 41.5
06:55 1023 30.21 852 25.16 16.6 61.8 46 4.9 40.8
07:00 1023 30.21 852 25.16 16.7 62.1 46 5.2 41.3
07:05 1023 30.21 852 25.16 17 62.5 45 5.1 41.2
07:10 1023 30.21 852 25.16 17.2 62.9 45 5.1 41.2
07:15 1023 30.21 852 25.16 18.1 64.6 43 5.5 42
07:20 1023 30.21 852 25.16 18.3 64.9 42 5.4 41.7
07:25 1023 30.21 852 25.16 19 66.2 43 6.3 43.3
07:30 1023 30.21 852 25.16 18.6 65.4 41 5 41.1
07:35 1023 30.21 852 25.16 18.9 66 41 5.4 41.7
07:40 1023 30.21 852 25.16 19.1 66.4 39 4.9 40.8
07:45 1023 30.21 852 25.16 20.1 68.3 35 4.4 39.8
07:50 1023 30.21 852 25.16 20.5 68.8 36 5.1 41.2
07:55 1023 30.21 852 25.16 20.1 68.3 36 4.9 40.9
08:00 1023 30.21 852 25.16 20.5 69 35 4.5 40.2
08:05 1023 30.21 852 25.16 21.2 70.2 32 4.2 39.5
08:10 1023 30.21 852 25.16 21.4 70.5 32 4.3 39.7
08:15 1023 30.21 852 25.16 21.7 71.1 30 3.8 38.9
08:20 1023 30.21 852 25.16 21.9 71.3 30 3.9 39
08:25 1023 30.21 852 25.16 21.8 71.2 31 4 39.2
08:30 1023 30.21 852 25.16 22.3 72.2 31 4.4 40
08:35 1023 30.21 852 25.16 22.3 72.1 32 5 41
08:40 1023 30.21 852 25.16 22 71.5 31 4.3 39.8
08:45 1023 30.21 852 25.16 22.6 72.6 30 4.2 39.6
08:50 1023 30.21 852 25.16 22.7 72.9 29 4 39.3
08:55 1023 30.21 852 25.16 22.6 72.6 30 4.2 39.6
09:00 1022 30.18 852 25.16 22.9 73.3 30 4.5 40.1
09:05 1022 30.18 852 25.16 23.2 73.8 31 5.5 42
09:10 1022 30.18 852 25.16 23 73.5 30 5 40.9
09:15 1022 30.18 852 25.16 23.5 74.4 30 5.1 41.3
09:20 1022 30.18 852 25.16 23.5 74.2 30 5.2 41.4
09:25 1022 30.18 852 25.16 23.2 73.8 30 5 41
09:30 1022 30.18 852 25.16 23.6 74.4 30 5.4 41.7
09:35 1022 30.18 852 25.16 24 75.1 31 5.8 42.5
09:40 1022 30.18 852 25.16 24.4 75.9 30 6 42.8
09:45 1022 30.18 852 25.16 24 75.2 31 6.1 43
09:50 1022 30.18 851 25.13 23.8 74.9 34 7.1 44.8
09:55 1022 30.18 851 25.13 23.5 74.2 33 6.5 43.6
10:00 1022 30.18 851 25.13 23.7 74.7 33 6.6 43.8
10:05 1022 30.18 851 25.13 24.1 75.3 33 7 44.7
10:10 1022 30.18 851 25.13 23.9 74.9 32 6.5 43.8
10:15 1022 30.18 851 25.13 24.3 75.7 32 6.7 44.1
10:20 1022 30.18 851 25.13 24.6 76.4 32 6.9 44.4
10:25 1022 30.18 851 25.13 24.7 76.5 31 6.6 43.9
10:30 1022 30.18 851 25.13 24.4 75.9 32 6.7 44.1
10:35 1022 30.18 851 25.13 24.5 76.1 31 6.4 43.5
10:40 1022 30.18 851 25.13 25.5 77.9 28 5.8 42.4
10:45 1022 30.18 851 25.13 25.5 77.9 28 5.8 42.4
10:50 1022 30.18 851 25.13 25.8 78.4 28 6.2 43.1
10:55 1022 30.18 851 25.13 25.8 78.4 28 6 42.8
11:00 1022 30.18 851 25.13 25.6 78.1 29 6.7 44.1
11:05 1022 30.18 851 25.13 24.8 76.7 31 6.6 43.8
11:10 1022 30.18 851 25.13 25 76.9 29 6 42.8
11:15 1022 30.18 851 25.13 25.3 77.6 29 6.2 43.2
11:20 1022 30.18 851 25.13 26.1 79.1 28 6.2 43.2
11:25 1022 30.18 851 25.13 26.8 80.2 27 6.4 43.6
11:30 1022 30.18 851 25.13 26.6 79.9 27 6.4 43.5
11:35 1022 30.18 851 25.13 26.3 79.3 26 5.5 41.9
11:40 1022 30.18 851 25.13 26.7 80.1 24 5 40.9
11:45 1022 30.18 851 25.13 26.5 79.7 26 5.8 42.4
11:50 1022 30.18 851 25.13 26.9 80.4 25 5.7 42.3
11:55 1022 30.18 851 25.13 27.3 81.1 24 5.4 41.7
12:00 1022 30.18 851 25.13 27.2 81 25 6 42.7
12:05 1022 30.18 851 25.13 26.5 79.7 26 5.5 41.8
12:10 1022 30.18 851 25.13 27 80.6 24 5 40.9
12:15 1021 30.15 851 25.13 27.4 81.4 24 5.3 41.5
12:20 1021 30.15 851 25.13 27.7 81.8 21 3.9 39
12:25 1021 30.15 851 25.13 26.8 80.2 25 5.4 41.8
12:30 1021 30.15 851 25.13 26.3 79.3 24 4.5 40.1
12:35 1021 30.15 851 25.13 26.6 79.9 24 4.6 40.3
12:40 1021 30.15 851 25.13 26.8 80.2 22 3.8 38.8
12:45 1021 30.15 851 25.13 27.6 81.6 20 3 37.4
12:50 1021 30.15 850 25.1 26.8 80.2 19 1.8 35.2
12:55 1021 30.15 850 25.1 27.3 81.1 17 0.6 33.2
13:00 1021 30.15 850 25.1 28.1 82.7 15 -0.2 31.6
13:05 1021 30.15 850 25.1 28.4 83.1 17 1.5 34.8
13:10 1021 30.15 850 25.1 28.5 83.4 15 0 32.1
13:15 1021 30.15 850 25.1 28.7 83.6 17 1.2 34.1
13:20 1021 30.15 850 25.1 28.7 83.6 16 0.8 33.5
13:25 1021 30.15 850 25.1 28.7 83.7 17 1.4 34.5
13:30 1021 30.15 850 25.1 28.3 83 17 1.3 34.3
13:35 1021 30.15 850 25.1 28.3 83 16 0.8 33.5
13:40 1021 30.15 850 25.1 29 84.1 15 -0.3 31.4
13:45 1021 30.15 850 25.1 29.1 84.3 15 0.3 32.5
13:50 1021 30.15 850 25.1 29.1 84.4 15 0.5 32.8
13:55 1021 30.15 850 25.1 29.3 84.7 15 0.4 32.8
14:00 1021 30.15 850 25.1 29 84.3 16 1.4 34.5
14:05 1021 30.15 850 25.1 28.6 83.4 15 -0.3 31.4
14:10 1021 30.15 850 25.1 29.1 84.5 15 0.2 32.3
14:15 1021 30.15 850 25.1 28.4 83.1 14 -1.3 29.6
14:20 1021 30.15 850 25.1 27.6 81.7 13 -3.2 26.3
14:25 1021 30.15 850 25.1 28.3 82.9 14 -1.3 29.7
14:30 1021 30.15 850 25.1 29.2 84.6 13 -1.3 29.7
14:35 1021 30.15 850 25.1 28.7 83.7 12 -2.9 26.9
14:40 1021 30.15 850 25.1 28.5 83.2 13 -1.8 28.7
14:45 1021 30.15 850 25.1 28.7 83.7 13 -2.6 27.4
14:50 1021 30.15 850 25.1 28.8 83.9 12 -3.3 26
14:55 1020 30.12 850 25.1 29 84.2 12 -3 26.7
15:00 1020 30.12 850 25.1 29.4 84.9 11 -3.6 25.5
15:05 1020 30.12 850 25.1 28.9 84 11 -4 24.7
15:10 1020 30.12 850 25.1 29.2 84.6 11 -4 24.9
15:15 1020 30.12 850 25.1 29.6 85.2 11 -4.2 24.4
15:20 1020 30.12 849 25.07 29.2 84.6 11 -4 24.8
15:25 1020 30.12 849 25.07 28.8 83.9 13 -2.1 28.2
15:30 1020 30.12 849 25.07 29.2 84.5 13 -1.8 28.7
15:35 1020 30.12 849 25.07 29.7 85.4 12 -2.2 28.1
15:40 1020 30.12 849 25.07 29.6 85.2 12 -2.5 27.5
15:45 1020 30.12 849 25.07 29.7 85.5 11 -4 24.8
15:50 1020 30.12 849 25.07 29.7 85.5 12 -2.4 27.8
15:55 1020 30.12 849 25.07 29.1 84.3 11 -4.2 24.4
16:00 1020 30.12 849 25.07 29.4 84.9 12 -2.5 27.5
16:05 1020 30.12 849 25.07 29.5 85 11 -3.9 25
16:10 1020 30.12 849 25.07 29.3 84.7 11 -3.7 25.3
16:15 1020 30.12 849 25.07 28.9 84 11 -3.7 25.4
16:20 1020 30.12 849 25.07 28.8 83.9 12 -2.7 27.1
16:25 1020 30.12 849 25.07 29.1 84.4 12 -2.8 27
16:30 1020 30.12 849 25.07 29.6 85.3 12 -2.2 28.1
16:35 1020 30.12 849 25.07 29.4 85 12 -3.2 26.3
16:40 1020 30.12 849 25.07 29.4 84.8 11 -3.4 26
16:45 1020 30.12 849 25.07 29.5 85.1 12 -2.9 26.8
16:50 1020 30.12 849 25.07 29.5 85.1 12 -3 26.5
16:55 1020 30.12 849 25.07 29 84.2 11 -4.3 24.3
17:00 1020 30.12 849 25.07 29.1 84.3 12 -3.1 26.3
17:05 1020 30.12 849 25.07 28.6 83.5 13 -2 28.3
17:10 1020 30.12 849 25.07 28.7 83.7 13 -2.6 27.3
17:15 1020 30.12 849 25.07 29.2 84.5 12 -3.3 26
17:20 1020 30.12 849 25.07 29.4 84.9 13 -1.8 28.8
17:25 1019 30.09 849 25.07 28.9 84 13 -2.2 28
17:30 1019 30.09 849 25.07 28.4 83.2 13 -2.2 28
17:35 1019 30.09 849 25.07 28.7 83.7 14 -1.4 29.5
17:40 1019 30.09 848 25.04 28.9 84 13 -2.1 28.3
17:45 1019 30.09 848 25.04 29 84.3 12 -2.4 27.6
17:50 1019 30.09 848 25.04 28.6 83.5 13 -2.3 27.9
17:55 1019 30.09 848 25.04 28.2 82.8 14 -1.9 28.5
18:00 1019 30.09 848 25.04 28.8 83.9 14 -1.3 29.7
18:05 1019 30.09 848 25.04 28.9 83.9 14 -0.9 30.4
18:10 1019 30.09 848 25.04 28.6 83.5 14 -0.8 30.6
18:15 1019 30.09 848 25.04 28.8 83.8 14 -0.8 30.6
18:20 1019 30.09 848 25.04 27.8 82 15 -0.5 31.1
18:25 1019 30.09 848 25.04 27.3 81.1 16 -0.5 31.1
18:30 1019 30.09 848 25.04 26.9 80.5 15 -1.2 29.8
18:35 1019 30.09 848 25.04 26.8 80.3 16 -0.5 31.1
18:40 1019 30.09 848 25.04 26.9 80.4 17 -0.1 31.9
18:45 1019 30.09 848 25.04 26.9 80.3 17 0.2 32.4
18:50 1019 30.09 848 25.04 26.8 80.3 17 -0.1 31.8
18:55 1019 30.09 848 25.04 26.8 80.3 17 0.3 32.5
19:00 1019 30.09 848 25.04 26.8 80.3 17 0.3 32.6
19:05 1019 30.09 848 25.04 26.7 80.1 18 1 33.8
19:10 1019 30.09 848 25.04 26.6 79.8 18 1 33.7
19:15 1019 30.09 848 25.04 26.4 79.5 21 2.5 36.5
19:20 1019 30.09 848 25.04 26 78.8 26 5.5 41.9
19:25 1019 30.09 848 25.04 25.7 78.3 23 3.5 38.3
19:30 1019 30.09 849 25.07 25.5 77.8 25 4.2 39.6
19:35 1019 30.09 849 25.07 25 77 25 3.8 38.8
19:40 1019 30.09 849 25.07 24.7 76.4 27 4.5 40.2
19:45 1019 30.09 849 25.07 24.6 76.3 25 3.3 37.9
19:50 1019 30.09 849 25.07 24.5 76.1 27 4.7 40.4
19:55 1020 30.12 849 25.07 23.9 74.9 29 5.2 41.4
20:00 1020 30.12 849 25.07 23.4 74.1 31 5.7 42.2
20:05 1020 30.12 849 25.07 22.9 73.3 36 7.1 44.8
20:10 1020 30.12 849 25.07 22.6 72.7 34 5.9 42.7
20:15 1020 30.12 849 25.07 22.2 72 31 4.4 39.9
20:20 1020 30.12 849 25.07 22 71.5 33 4.9 40.9
20:25 1020 30.12 849 25.07 21.6 70.9 33 4.7 40.4
20:30 1020 30.12 849 25.07 21.2 70.2 36 5.8 42.5
20:35 1020 30.12 849 25.07 21 69.7 34 4.8 40.7
20:40 1020 30.12 849 25.07 21 69.9 34 4.5 40.2
20:45 1020 30.12 849 25.07 21 69.8 33 4.4 39.9
20:50 1020 30.12 849 25.07 21.4 70.5 31 3.8 38.9
20:55 1020 30.12 849 25.07 21.7 71 31 4.1 39.4
21:00 1020 30.12 849 25.07 21.4 70.6 32 4.4 39.9
21:05 1020 30.12 849 25.07 21.2 70.1 33 4.5 40.1
21:10 1020 30.12 849 25.07 21.1 69.9 33 4.6 40.2
21:15 1020 30.12 849 25.07 21 69.9 34 4.6 40.4
21:20 1020 30.12 849 25.07 21.1 70.1 34 4.7 40.5
21:25 1020 30.12 849 25.07 21.4 70.5 33 4.7 40.5
21:30 1020 30.12 849 25.07 21.7 71 33 5 41
21:35 1020 30.12 849 25.07 21.7 71 34 5.3 41.6
21:40 1020 30.12 849 25.07 21.5 70.7 34 5.3 41.5
21:45 1020 30.12 850 25.1 21.3 70.4 35 5.5 41.8
21:50 1020 30.12 850 25.1 21.2 70.1 35 5.3 41.6
21:55 1020 30.12 850 25.1 21.1 69.9 35 5.2 41.4
22:00 1020 30.12 850 25.1 21 69.8 35 5.1 41.2
22:05 1020 30.12 850 25.1 20.9 69.6 35 5.1 41.2
22:10 1021 30.15 850 25.1 20.8 69.4 36 5.2 41.4
22:15 1021 30.15 850 25.1 20.6 69.1 36 5.1 41.3
22:20 1021 30.15 850 25.1 20.6 69 34 4.3 39.8
22:25 1021 30.15 850 25.1 20.7 69.3 34 4.7 40.4
22:30 1021 30.15 850 25.1 20.6 69.1 35 4.9 40.8
22:35 1021 30.15 850 25.1 20.5 68.9 34 4.2 39.6
22:40 1020 30.12 850 25.1 20.6 69.2 34 4.3 39.8
22:45 1021 30.15 850 25.1 20.6 69 34 4.3 39.7
22:50 1021 30.15 850 25.1 20.5 69 34 4.2 39.6
22:55 1021 30.15 850 25.1 20.5 68.9 34 4.2 39.5
23:00 1021 30.15 850 25.1 20.4 68.7 34 4.3 39.7
23:05 1021 30.15 850 25.1 20.3 68.6 34 4.3 39.7
23:10 1021 30.15 850 25.1 20.2 68.3 35 4.4 39.9
23:15 1021 30.15 850 25.1 20.1 68.1 35 4.5 40
23:20 1021 30.15 850 25.1 20 67.9 35 4.3 39.7
23:25 1021 30.15 850 25.1 20 68 35 4.4 39.9
23:30 1021 30.15 850 25.1 20 67.9 35 4.2 39.6
23:35 1021 30.15 850 25.1 20 67.9 35 4.3 39.8
23:40 1021 30.15 850 25.1 19.9 67.7 36 4.5 40
23:45 1021 30.15 850 25.1 19.7 67.4 36 4.5 40.1
23:50 1021 30.15 850 25.1 19.6 67.2 37 4.5 40.1
23:55 1021 30.15 850 25.1 19.5 67.1 37 4.5 40.2
24:00 1021 30.15 850 25.1 19.5 67 37 4.4 39.8